createdAt,value
2019-06-20T00:02:17.714Z,52.27
2019-06-20T00:04:46.987Z,52.30
2019-06-20T00:07:16.202Z,53.13
2019-06-20T00:09:46.651Z,52.18
2019-06-20T00:12:15.674Z,53.60
2019-06-20T00:14:44.863Z,53.27
2019-06-20T00:17:14.088Z,53.50
2019-06-20T00:19:44.581Z,52.86
2019-06-20T00:22:13.910Z,52.37
2019-06-20T00:24:44.047Z,54.02
2019-06-20T00:27:13.376Z,52.48
2019-06-20T00:29:42.495Z,52.47
2019-06-20T00:32:11.849Z,52.95
2019-06-20T00:34:41.091Z,52.85
2019-06-20T00:37:09.991Z,52.00
2019-06-20T00:39:39.103Z,51.61
2019-06-20T00:42:08.737Z,52.68
2019-06-20T00:44:38.479Z,52.53
2019-06-20T00:47:08.232Z,51.86
2019-06-20T00:49:37.746Z,52.98
2019-06-20T00:52:06.836Z,52.33
2019-06-20T00:54:36.188Z,52.81
2019-06-20T00:57:05.286Z,52.88
2019-06-20T00:59:34.672Z,52.36
2019-06-20T01:02:03.842Z,52.67
2019-06-20T01:04:32.980Z,53.02
2019-06-20T01:07:02.213Z,52.43
2019-06-20T01:09:31.683Z,52.48
2019-06-20T01:12:00.856Z,51.94
2019-06-20T01:14:30.304Z,53.22
2019-06-20T01:16:59.301Z,53.71
2019-06-20T01:19:28.571Z,52.24
2019-06-20T01:21:57.872Z,52.38
2019-06-20T01:24:26.952Z,52.30
2019-06-20T01:26:56.131Z,52.39
2019-06-20T01:29:25.242Z,53.03
2019-06-20T01:31:54.394Z,54.69
2019-06-20T01:34:23.654Z,53.04
2019-06-20T01:36:52.865Z,52.84
2019-06-20T01:39:22.050Z,53.76
2019-06-20T01:41:50.935Z,53.05
2019-06-20T01:44:20.160Z,53.19
2019-06-20T01:46:49.168Z,53.54
2019-06-20T01:49:18.398Z,54.15
2019-06-20T01:51:47.314Z,53.77
2019-06-20T01:54:16.418Z,53.62
2019-06-20T01:56:45.614Z,55.44
2019-06-20T01:59:14.778Z,54.32
2019-06-20T02:01:43.871Z,53.94
2019-06-20T02:04:12.944Z,55.42
2019-06-20T02:06:41.902Z,54.52
2019-06-20T02:09:10.910Z,53.88
2019-06-20T02:11:39.973Z,55.04
2019-06-20T02:14:08.936Z,53.95
2019-06-20T02:16:37.915Z,53.95
2019-06-20T02:19:07.824Z,54.09
2019-06-20T02:21:37.834Z,55.25
2019-06-20T02:24:07.556Z,53.63
2019-06-20T02:26:36.777Z,53.69
2019-06-20T02:29:06.000Z,53.76
2019-06-20T02:31:35.409Z,54.87
2019-06-20T02:34:04.577Z,53.97
2019-06-20T02:36:33.693Z,54.01
2019-06-20T02:39:02.609Z,54.46
2019-06-20T02:41:33.193Z,54.00
2019-06-20T02:44:02.311Z,55.25
2019-06-20T02:46:31.411Z,54.81
2019-06-20T02:49:00.537Z,53.29
2019-06-20T02:51:30.073Z,53.14
2019-06-20T02:53:59.191Z,53.25
2019-06-20T02:56:28.290Z,53.37
2019-06-20T02:58:57.235Z,52.70
2019-06-20T03:01:27.474Z,52.92
2019-06-20T03:03:56.797Z,52.74
2019-06-20T03:06:25.752Z,52.35
2019-06-20T03:08:54.861Z,53.64
2019-06-20T03:11:23.947Z,51.95
2019-06-20T03:13:52.892Z,51.71
2019-06-20T03:16:21.982Z,51.38
2019-06-20T03:18:50.975Z,51.32
2019-06-20T03:21:20.054Z,51.22
2019-06-20T03:23:49.546Z,51.36
2019-06-20T03:26:18.834Z,50.95
2019-06-20T03:28:47.955Z,51.51
2019-06-20T03:31:17.498Z,51.70
2019-06-20T03:33:46.767Z,50.72
2019-06-20T03:36:15.941Z,50.70
2019-06-20T03:38:45.274Z,50.62
2019-06-20T03:41:14.263Z,49.99
2019-06-20T03:43:43.292Z,50.05
2019-06-20T03:46:12.359Z,49.88
2019-06-20T03:48:41.596Z,50.15
2019-06-20T03:51:10.706Z,49.63
2019-06-20T03:53:39.897Z,49.52
2019-06-20T03:56:08.956Z,49.32
2019-06-20T03:58:38.270Z,49.72
2019-06-20T04:01:07.373Z,49.28
2019-06-20T04:03:36.830Z,49.41
2019-06-20T04:06:05.856Z,49.33
2019-06-20T04:08:34.980Z,48.95
2019-06-20T04:11:05.616Z,48.88
2019-06-20T04:13:34.674Z,48.69
2019-06-20T04:16:03.966Z,48.65
2019-06-20T04:18:33.070Z,48.03
2019-06-20T04:21:02.300Z,48.34
2019-06-20T04:23:31.495Z,48.08
2019-06-20T04:26:00.569Z,48.23
2019-06-20T04:28:29.683Z,47.92
2019-06-20T04:30:58.802Z,47.38
2019-06-20T04:33:28.353Z,47.44
2019-06-20T04:35:57.389Z,47.10
2019-06-20T04:38:26.808Z,46.62
2019-06-20T04:40:55.907Z,46.64
2019-06-20T04:43:26.064Z,46.78
2019-06-20T04:46:20.335Z,46.43
2019-06-20T04:48:49.339Z,45.93
2019-06-20T04:51:18.472Z,45.31
2019-06-20T04:53:47.542Z,45.30
2019-06-20T04:56:16.761Z,45.40
2019-06-20T04:58:45.848Z,45.62
2019-06-20T05:01:15.091Z,45.21
2019-06-20T05:03:44.211Z,44.56
2019-06-20T05:06:14.089Z,44.23
2019-06-20T05:08:42.805Z,44.25
2019-06-20T05:11:11.606Z,43.38
2019-06-20T05:13:40.489Z,43.73
2019-06-20T05:16:09.564Z,43.66
2019-06-20T05:18:40.067Z,43.34
2019-06-20T05:21:09.209Z,43.37
2019-06-20T05:23:39.217Z,43.31
2019-06-20T05:26:08.616Z,42.97
2019-06-20T05:28:38.785Z,43.27
2019-06-20T05:31:07.823Z,43.44
2019-06-20T05:33:37.823Z,42.68
2019-06-20T05:36:06.722Z,41.05
2019-06-20T05:38:35.489Z,41.66
2019-06-20T05:41:07.061Z,41.70
2019-06-20T05:43:37.415Z,41.63
2019-06-20T05:46:10.678Z,40.92
2019-06-20T05:48:37.474Z,40.79
2019-06-20T05:51:09.674Z,40.19
2019-06-20T05:53:38.867Z,38.56
2019-06-20T05:56:08.570Z,38.36
2019-06-20T05:58:39.357Z,38.39
2019-06-20T06:01:08.484Z,37.92
2019-06-20T06:03:37.503Z,37.44
2019-06-20T06:06:06.418Z,35.58
2019-06-20T06:08:35.272Z,35.40
2019-06-20T06:11:04.293Z,35.20
2019-06-20T06:13:33.088Z,35.51
2019-06-20T06:16:03.183Z,35.85
2019-06-20T06:18:32.157Z,34.91
2019-06-20T06:21:01.355Z,34.59
2019-06-20T06:23:30.247Z,33.81
2019-06-20T06:25:59.741Z,33.50
2019-06-20T06:28:28.995Z,31.43
2019-06-20T06:30:57.874Z,29.74
2019-06-20T06:33:27.627Z,29.91
2019-06-20T06:35:57.040Z,29.96
2019-06-20T06:38:26.139Z,30.09
2019-06-20T06:40:55.387Z,29.05
2019-06-20T06:43:24.689Z,28.79
2019-06-20T06:45:54.423Z,29.03
2019-06-20T06:48:23.657Z,29.19
2019-06-20T06:50:52.874Z,29.40
2019-06-20T06:53:22.181Z,28.69
2019-06-20T06:55:51.588Z,28.76
2019-06-20T06:58:20.861Z,28.48
2019-06-20T07:00:50.088Z,28.32
2019-06-20T07:03:19.229Z,27.83
2019-06-20T07:05:49.615Z,27.47
2019-06-20T07:08:19.076Z,26.96
2019-06-20T07:10:48.041Z,26.83
2019-06-20T07:13:17.266Z,27.37
2019-06-20T07:15:46.361Z,27.37
2019-06-20T07:18:15.409Z,27.46
2019-06-20T07:20:44.810Z,27.48
2019-06-20T07:23:13.840Z,26.80
2019-06-20T07:25:43.082Z,26.81
2019-06-20T07:28:12.321Z,26.59
2019-06-20T07:30:41.364Z,27.07
2019-06-20T07:33:10.666Z,26.90
2019-06-20T07:35:41.891Z,26.71
2019-06-20T07:38:10.638Z,26.77
2019-06-20T07:40:39.588Z,27.04
2019-06-20T07:43:08.700Z,27.24
2019-06-20T07:45:37.981Z,27.29
2019-06-20T07:48:06.980Z,27.25
2019-06-20T07:50:39.360Z,27.56
2019-06-20T07:53:06.874Z,27.64
2019-06-20T07:55:35.920Z,27.15
2019-06-20T07:58:05.421Z,26.97
2019-06-20T08:00:34.872Z,27.79
2019-06-20T08:03:04.305Z,27.61
2019-06-20T08:05:33.466Z,27.65
2019-06-20T08:08:02.761Z,27.74
2019-06-20T08:10:32.585Z,27.67
2019-06-20T08:13:01.667Z,27.69
2019-06-20T08:15:31.191Z,28.08
2019-06-20T08:18:00.318Z,27.38
2019-06-20T08:20:29.422Z,26.90
2019-06-20T08:22:58.602Z,27.25
2019-06-20T08:25:27.909Z,27.39
2019-06-20T08:27:59.101Z,26.44
2019-06-20T08:30:29.928Z,26.38
2019-06-20T08:33:03.649Z,25.37
2019-06-20T08:35:32.254Z,25.49
2019-06-20T08:38:03.745Z,26.00
2019-06-20T08:40:36.391Z,25.97
2019-06-20T08:43:06.661Z,25.95
2019-06-20T08:45:37.816Z,26.14
2019-06-20T08:48:07.489Z,28.03
2019-06-20T08:50:37.079Z,26.55
2019-06-20T08:53:06.616Z,27.59
2019-06-20T08:55:36.169Z,27.08
2019-06-20T08:58:05.788Z,28.80
2019-06-20T09:00:36.949Z,27.34
2019-06-20T09:03:07.172Z,26.72
2019-06-20T09:05:36.386Z,26.84
2019-06-20T09:08:11.112Z,25.92
2019-06-20T09:10:39.912Z,25.85
2019-06-20T09:13:10.919Z,25.73
2019-06-20T09:15:40.154Z,25.67
2019-06-20T09:18:10.522Z,25.64
2019-06-20T09:20:40.622Z,26.14
2019-06-20T09:23:09.297Z,26.67
2019-06-20T09:25:39.925Z,25.42
2019-06-20T09:28:09.805Z,24.29
2019-06-20T09:30:39.016Z,25.36
2019-06-20T09:33:08.597Z,24.70
2019-06-20T09:35:38.212Z,24.56
2019-06-20T09:38:07.397Z,25.09
2019-06-20T09:40:36.642Z,26.61
2019-06-20T09:43:06.680Z,26.10
2019-06-20T09:45:35.911Z,26.03
2019-06-20T09:48:05.165Z,25.38
2019-06-20T09:50:34.446Z,24.45
2019-06-20T09:53:03.619Z,24.61
2019-06-20T09:55:32.996Z,23.43
2019-06-20T09:58:02.478Z,24.05
2019-06-20T10:00:33.739Z,24.38
2019-06-20T10:03:03.053Z,24.67
2019-06-20T10:05:32.396Z,25.98
2019-06-20T10:08:01.585Z,25.33
2019-06-20T10:10:31.357Z,25.21
2019-06-20T10:13:01.416Z,25.28
2019-06-20T10:15:31.578Z,25.67
2019-06-20T10:18:00.789Z,25.21
2019-06-20T10:20:29.964Z,25.46
2019-06-20T10:22:59.080Z,24.74
2019-06-20T10:25:28.076Z,24.44
2019-06-20T10:27:57.884Z,25.29
2019-06-20T10:30:27.492Z,25.37
2019-06-20T10:32:57.735Z,24.25
2019-06-20T10:35:27.320Z,24.44
2019-06-20T10:37:57.152Z,24.11
2019-06-20T10:40:26.919Z,24.04
2019-06-20T10:42:56.961Z,23.94
2019-06-20T10:45:26.691Z,24.76
2019-06-20T10:47:56.195Z,23.12
2019-06-20T10:50:25.646Z,23.55
2019-06-20T10:52:55.062Z,22.85
2019-06-20T10:55:24.564Z,22.55
2019-06-20T10:57:53.782Z,21.81
2019-06-20T11:00:31.192Z,21.25
2019-06-20T11:02:55.771Z,21.16
2019-06-20T11:05:24.936Z,21.33
2019-06-20T11:07:54.306Z,20.68
2019-06-20T11:10:24.267Z,20.24
2019-06-20T11:12:56.010Z,19.89
2019-06-20T11:15:24.570Z,18.93
2019-06-20T11:17:56.364Z,18.33
2019-06-20T11:20:24.431Z,16.98
2019-06-20T11:22:53.703Z,15.52
2019-06-20T11:25:22.406Z,14.29
2019-06-20T11:27:51.309Z,13.10
2019-06-20T11:30:20.579Z,12.28
2019-06-20T11:32:49.427Z,11.14
2019-06-20T11:35:18.722Z,10.65
2019-06-20T11:37:47.465Z,10.13
2019-06-20T11:40:16.774Z,10.52
2019-06-20T11:42:46.973Z,11.51
2019-06-20T11:45:16.991Z,10.92
2019-06-20T11:47:47.383Z,10.54
2019-06-20T11:50:16.607Z,9.61
2019-06-20T11:52:45.973Z,8.64
2019-06-20T11:55:16.405Z,8.21
2019-06-20T11:57:45.232Z,7.62
2019-06-20T12:00:15.088Z,7.58
2019-06-20T12:02:44.737Z,7.43
2019-06-20T12:05:16.241Z,7.42
2019-06-20T12:07:45.647Z,7.08
2019-06-20T12:10:15.668Z,6.68
2019-06-20T12:12:44.794Z,6.18
2019-06-20T12:15:13.962Z,5.98
2019-06-20T12:17:45.190Z,5.70
2019-06-20T12:20:14.034Z,5.75
2019-06-20T12:22:43.606Z,5.45
2019-06-20T12:25:14.007Z,5.50
2019-06-20T12:27:43.267Z,5.13
2019-06-20T12:30:13.894Z,4.91
2019-06-20T12:32:42.633Z,5.05
2019-06-20T12:35:11.970Z,5.83
2019-06-20T12:37:42.529Z,7.03
2019-06-20T12:40:11.971Z,7.28
2019-06-20T12:42:41.825Z,6.70
2019-06-20T12:45:11.357Z,6.20
2019-06-20T12:47:41.799Z,6.25
2019-06-20T12:50:10.760Z,6.21
2019-06-20T12:52:40.723Z,6.93
2019-06-20T12:55:10.994Z,7.05
2019-06-20T12:57:40.369Z,7.53
2019-06-20T13:00:10.104Z,7.50
2019-06-20T13:02:40.488Z,7.67
2019-06-20T13:05:10.506Z,7.87
2019-06-20T13:07:40.756Z,7.82
2019-06-20T13:10:10.029Z,7.26
2019-06-20T13:12:42.255Z,6.81
2019-06-20T13:15:11.628Z,6.63
2019-06-20T13:17:41.922Z,5.75
2019-06-20T13:20:12.467Z,5.47
2019-06-20T13:22:42.793Z,5.62
2019-06-20T13:25:13.540Z,5.68
2019-06-20T13:27:43.427Z,5.61
2019-06-20T13:30:12.729Z,5.19
2019-06-20T13:32:43.099Z,5.30
2019-06-20T13:35:12.487Z,5.41
2019-06-20T13:37:42.092Z,5.38
2019-06-20T13:40:12.752Z,5.45
2019-06-20T13:42:43.699Z,5.49
2019-06-20T13:45:24.892Z,5.56
2019-06-20T13:47:53.803Z,5.45
2019-06-20T13:50:24.358Z,5.45
2019-06-20T13:52:53.303Z,5.11
2019-06-20T13:55:22.540Z,5.11
2019-06-20T13:57:52.648Z,5.23
2019-06-20T14:00:21.968Z,4.78
2019-06-20T14:02:51.701Z,4.63
2019-06-20T14:05:20.856Z,4.68
2019-06-20T14:07:53.473Z,4.66
2019-06-20T14:10:21.820Z,4.76
2019-06-20T14:12:50.591Z,5.05
2019-06-20T14:15:19.886Z,5.13
2019-06-20T14:17:49.773Z,4.92
2019-06-20T14:20:19.224Z,4.93
2019-06-20T14:22:49.524Z,5.03
2019-06-20T14:25:19.549Z,4.85
2019-06-20T14:27:51.348Z,5.03
2019-06-20T14:30:20.802Z,4.85
2019-06-20T14:32:49.696Z,4.85
2019-06-20T14:35:19.595Z,4.84
2019-06-20T14:37:49.560Z,4.89
2019-06-20T14:40:19.545Z,4.70
2019-06-20T14:42:48.216Z,4.70
2019-06-20T14:45:18.517Z,4.97
2019-06-20T14:47:47.743Z,4.97
2019-06-20T14:50:16.870Z,5.21
2019-06-20T14:52:48.043Z,5.68
2019-06-20T14:55:16.652Z,7.06
2019-06-20T14:57:46.996Z,7.25
2019-06-20T15:00:16.353Z,7.14
2019-06-20T15:02:47.231Z,6.96
2019-06-20T15:05:17.768Z,6.79
2019-06-20T15:07:48.924Z,6.84
2019-06-20T15:10:18.077Z,7.78
2019-06-20T15:12:48.389Z,8.45
2019-06-20T15:15:17.990Z,9.08
2019-06-20T15:17:49.728Z,9.94
2019-06-20T15:20:18.181Z,10.21
2019-06-20T15:22:48.803Z,10.65
2019-06-20T15:25:18.975Z,10.92
2019-06-20T15:27:50.267Z,11.12
2019-06-20T15:30:20.204Z,11.58
2019-06-20T15:33:01.194Z,12.50
2019-06-20T15:35:19.553Z,13.69
2019-06-20T15:37:50.188Z,14.70
2019-06-20T15:40:19.773Z,15.41
2019-06-20T15:42:49.586Z,15.53
2019-06-20T15:45:19.579Z,16.37
2019-06-20T15:47:48.462Z,16.77
2019-06-20T15:50:17.381Z,17.01
2019-06-20T15:52:46.309Z,18.25
2019-06-20T15:55:19.125Z,18.56
2019-06-20T15:57:47.731Z,18.73
2019-06-20T16:00:17.033Z,18.80
2019-06-20T16:02:45.982Z,19.42
2019-06-20T16:05:15.104Z,20.01
2019-06-20T16:07:44.080Z,20.36
2019-06-20T16:10:15.295Z,20.72
2019-06-20T16:12:44.760Z,21.15
2019-06-20T16:15:20.079Z,21.66
2019-06-20T16:17:48.866Z,22.99
2019-06-20T16:20:18.052Z,23.25
2019-06-20T16:22:48.917Z,22.85
2019-06-20T16:25:18.137Z,22.97
2019-06-20T16:27:47.305Z,22.89
2019-06-20T16:30:16.507Z,22.95
2019-06-20T16:32:45.653Z,22.80
2019-06-20T16:35:14.909Z,22.72
2019-06-20T16:37:43.884Z,23.41
2019-06-20T16:40:13.316Z,23.30
2019-06-20T16:42:42.094Z,23.00
2019-06-20T16:45:11.368Z,22.21
2019-06-20T16:47:40.201Z,21.74
2019-06-20T16:50:09.254Z,21.86
2019-06-20T16:52:38.041Z,22.08
2019-06-20T16:55:07.447Z,22.65
2019-06-20T16:57:36.496Z,22.71
2019-06-20T17:00:07.032Z,23.14
2019-06-20T17:02:36.228Z,23.94
2019-06-20T17:05:05.806Z,24.29
2019-06-20T17:07:35.599Z,24.91
2019-06-20T17:10:07.816Z,25.39
2019-06-20T17:12:38.270Z,25.40
2019-06-20T17:15:07.808Z,25.63
2019-06-20T17:17:36.935Z,25.67
2019-06-20T17:20:06.413Z,25.84
2019-06-20T17:22:35.559Z,25.91
2019-06-20T17:25:04.614Z,26.17
2019-06-20T17:27:33.833Z,26.20
2019-06-20T17:30:03.037Z,26.41
2019-06-20T17:32:32.179Z,26.49
2019-06-20T17:35:01.488Z,26.91
2019-06-20T17:37:30.898Z,27.28
2019-06-20T17:39:59.746Z,27.69
2019-06-20T17:42:28.988Z,28.01
2019-06-20T17:44:58.214Z,28.59
2019-06-20T17:47:27.724Z,28.08
2019-06-20T17:49:56.793Z,28.34
2019-06-20T17:52:25.798Z,28.21
2019-06-20T17:54:54.789Z,28.27
2019-06-20T17:57:23.689Z,29.10
2019-06-20T17:59:53.900Z,28.45
2019-06-20T18:02:23.425Z,28.49
2019-06-20T18:04:52.880Z,28.62
2019-06-20T18:07:24.269Z,28.75
2019-06-20T18:09:53.896Z,29.11
2019-06-20T18:12:23.255Z,29.34
2019-06-20T18:14:52.332Z,29.56
2019-06-20T18:17:21.264Z,29.50
2019-06-20T18:19:50.654Z,29.65
2019-06-20T18:22:19.813Z,30.11
2019-06-20T18:24:48.939Z,29.88
2019-06-20T18:27:17.929Z,30.40
2019-06-20T18:29:47.117Z,30.62
2019-06-20T18:32:16.038Z,30.45
2019-06-20T18:35:00.552Z,30.71
2019-06-20T18:37:30.593Z,30.96
2019-06-20T18:39:46.576Z,30.94
2019-06-20T18:42:15.566Z,31.19
2019-06-20T18:44:44.546Z,31.16
2019-06-20T18:47:13.561Z,31.31
2019-06-20T18:49:42.710Z,31.34
2019-06-20T18:52:11.720Z,31.79
2019-06-20T18:54:40.844Z,31.76
2019-06-20T18:57:10.178Z,31.91
2019-06-20T18:59:39.454Z,31.96
2019-06-20T19:02:09.108Z,32.32
2019-06-20T19:04:47.768Z,32.55
2019-06-20T19:07:09.310Z,32.82
2019-06-20T19:09:38.237Z,33.05
2019-06-20T19:12:07.273Z,33.03
2019-06-20T19:14:55.411Z,32.86
2019-06-20T19:17:24.492Z,33.22
2019-06-20T19:19:53.504Z,32.96
2019-06-20T19:22:22.625Z,33.09
2019-06-20T19:24:51.735Z,33.55
2019-06-20T19:27:20.744Z,34.01
2019-06-20T19:29:50.133Z,33.77
2019-06-20T19:32:19.377Z,34.21
2019-06-20T19:35:01.425Z,34.27
2019-06-20T19:37:19.427Z,34.53
2019-06-20T19:39:48.520Z,34.62
2019-06-20T19:42:20.430Z,34.84
2019-06-20T19:44:48.146Z,34.94
2019-06-20T19:47:17.518Z,34.79
2019-06-20T19:49:47.013Z,34.83
2019-06-20T19:52:16.072Z,35.04
2019-06-20T19:54:47.039Z,35.14
2019-06-20T19:57:16.221Z,34.91
2019-06-20T19:59:46.290Z,34.96
2019-06-20T20:02:15.565Z,35.01
2019-06-20T20:04:44.901Z,35.20
2019-06-20T20:07:14.084Z,35.17
2019-06-20T20:09:43.279Z,35.37
2019-06-20T20:12:12.593Z,35.37
2019-06-20T20:14:42.740Z,35.63
2019-06-20T20:17:12.263Z,35.70
2019-06-20T20:19:41.422Z,36.55
2019-06-20T20:22:11.182Z,36.91
2019-06-20T20:24:40.483Z,36.94
2019-06-20T20:27:09.436Z,35.76
2019-06-20T20:29:38.712Z,35.76
2019-06-20T20:32:10.061Z,36.32
2019-06-20T20:34:39.328Z,36.17
2019-06-20T20:37:09.568Z,36.71
2019-06-20T20:39:39.033Z,36.54
2019-06-20T20:42:08.124Z,37.00
2019-06-20T20:44:37.669Z,36.64
2019-06-20T20:47:06.628Z,36.78
2019-06-20T20:49:35.727Z,37.00
2019-06-20T20:52:05.130Z,37.22
2019-06-20T20:54:34.257Z,37.09
2019-06-20T20:57:03.556Z,37.21
2019-06-20T20:59:32.642Z,37.33
2019-06-20T21:02:01.665Z,37.42
2019-06-20T21:04:31.478Z,37.50
2019-06-20T21:07:00.676Z,37.50
2019-06-20T21:09:29.793Z,37.65
2019-06-20T21:11:58.526Z,37.96
2019-06-20T21:14:27.582Z,37.89
2019-06-20T21:16:56.389Z,37.87
2019-06-20T21:19:25.502Z,37.94
2019-06-20T21:21:54.319Z,37.93
2019-06-20T21:24:23.329Z,38.05
2019-06-20T21:26:51.811Z,38.26
2019-06-20T21:29:20.544Z,38.54
2019-06-20T21:31:49.462Z,38.85
2019-06-20T21:34:19.490Z,38.79
2019-06-20T21:36:48.594Z,39.04
2019-06-20T21:39:17.539Z,39.24
2019-06-20T21:41:46.049Z,39.58
2019-06-20T21:44:15.076Z,39.67
2019-06-20T21:46:44.492Z,39.71
2019-06-20T21:49:13.099Z,39.80
2019-06-20T21:51:44.597Z,39.94
2019-06-20T21:54:12.400Z,40.09
2019-06-20T21:56:41.552Z,40.10
2019-06-20T21:59:10.215Z,40.04
2019-06-20T22:01:39.862Z,40.18
2019-06-20T22:04:09.038Z,39.89
2019-06-20T22:06:38.043Z,40.56
2019-06-20T22:09:09.332Z,40.09
2019-06-20T22:11:38.638Z,39.88
2019-06-20T22:14:07.714Z,40.40
2019-06-20T22:16:37.302Z,40.21
2019-06-20T22:19:06.535Z,40.06
2019-06-20T22:21:35.308Z,40.22
2019-06-20T22:24:04.062Z,40.81
2019-06-20T22:26:32.810Z,40.48
2019-06-20T22:29:01.479Z,40.58
2019-06-20T22:31:30.538Z,40.66
2019-06-20T22:33:59.309Z,41.10
2019-06-20T22:36:39.793Z,41.33
2019-06-20T22:38:59.600Z,41.16
2019-06-20T22:41:28.477Z,41.34
2019-06-20T22:43:57.632Z,41.71
2019-06-20T22:46:27.011Z,41.40
2019-06-20T22:48:56.177Z,41.59
2019-06-20T22:51:25.203Z,41.44
2019-06-20T22:53:54.083Z,41.67
2019-06-20T22:56:22.808Z,41.35
2019-06-20T22:58:52.076Z,41.58
2019-06-20T23:01:21.060Z,41.84
2019-06-20T23:03:50.193Z,41.82
2019-06-20T23:06:19.081Z,42.16
2019-06-20T23:08:49.282Z,42.63
2019-06-20T23:11:18.446Z,42.91
2019-06-20T23:13:47.444Z,42.97
2019-06-20T23:16:16.548Z,43.24
2019-06-20T23:18:45.888Z,43.74
2019-06-20T23:21:14.948Z,43.92
2019-06-20T23:23:43.840Z,44.29
2019-06-20T23:26:13.904Z,44.52
2019-06-20T23:28:42.762Z,44.65
2019-06-20T23:31:12.018Z,44.97
2019-06-20T23:33:41.063Z,45.27
2019-06-20T23:36:10.232Z,46.24
2019-06-20T23:38:39.387Z,45.61
2019-06-20T23:41:08.677Z,45.94
2019-06-20T23:43:38.006Z,45.84
2019-06-20T23:46:06.989Z,45.30
2019-06-20T23:48:35.889Z,46.23
2019-06-20T23:51:06.674Z,46.44
2019-06-20T23:53:35.842Z,46.78
2019-06-20T23:56:07.923Z,46.71
2019-06-20T23:58:35.889Z,47.25
